Pagrindinis puslapis
METAR-TAF:

METAR-TAF

Oro uostai :

Platinum, Aliaska, Jungtinės Amerikos Valstijos

platuma: 59-01N, ilguma: 161-49W, Aukštis: 3 m

Dabartinis oras

Ataskaita buvo paskelbta 25 minutes, ne 20:56 UTC
Vėjas 18 kt iš Pietų/Pietvakarių
Temperatūra 11°C
Drėgmė 82%
Slėgis 1002 hPa
Matomumas: 16.1 km
Mažai debesys ne aukštis 1700 ft
Išsisklaidę debesys ne aukštis 2600 ft
Apsiniaukę ne aukštis 3900 ft
lietus

METAR: PAPM 212056Z AUTO 20018KT 10SM -RA FEW017 SCT026 OVC039 11/08 A2960 RMK AO2 RAB03 SLP026 P0000 60010 T01060078 58015

Laikas: 13:21 (21:21 UTC)


TAF: trūkstamas

Orai ataskaitas ir orų prognozės (METAR, TAF).

turimą stotys yra geltonos ir raudonos taškus žemėlapyje.

Perkelti pele per norėdami pamatyti stoties vardą.

Tada spustelėkite, norėdami matyti oro stebėjimo ir prognozės.

Norėdami pakeisti žemėlapį: spustelėkite ant žalios mygtukų su juodo kryžiaus žemyn,; žalią mygtuką su brūkšneliu, jei norite nutolinti; arba žalių rodyklių gretimoms žemėlapius.


METAR-TAF: